createdAt,value
2023-01-10T00:01:59.388Z,0.00
2023-01-10T00:07:03.574Z,0.50
2023-01-10T00:12:24.480Z,1.00
2023-01-10T00:17:27.276Z,0.00
2023-01-10T00:22:31.391Z,0.75
2023-01-10T00:27:34.797Z,0.00
2023-01-10T00:32:37.602Z,0.00
2023-01-10T00:37:42.015Z,0.75
2023-01-10T00:43:02.262Z,0.00
2023-01-10T00:48:05.338Z,0.75
2023-01-10T00:53:09.787Z,0.00
2023-01-10T00:58:14.518Z,1.00
2023-01-10T01:03:19.938Z,0.00
2023-01-10T01:08:24.237Z,0.00
2023-01-10T01:13:27.203Z,0.50
2023-01-10T01:18:30.308Z,0.00
2023-01-10T01:23:36.537Z,0.00
2023-01-10T01:28:39.712Z,0.25
2023-01-10T01:33:42.702Z,0.00
2023-01-10T01:38:47.364Z,0.00
2023-01-10T01:44:01.619Z,0.50
2023-01-10T01:49:06.967Z,0.00
2023-01-10T01:54:13.979Z,1.00
2023-01-10T01:59:21.555Z,0.00
2023-01-10T02:04:30.679Z,0.00
2023-01-10T02:09:42.724Z,0.00
2023-01-10T02:14:48.327Z,0.00
2023-01-10T02:19:55.306Z,0.00
2023-01-10T02:25:30.665Z,0.25
2023-01-10T02:31:17.276Z,0.00
2023-01-10T02:36:37.197Z,0.00
2023-01-10T02:41:47.400Z,0.00
2023-01-10T02:46:50.790Z,0.00
2023-01-10T02:51:55.563Z,0.00
2023-01-10T02:57:26.999Z,1.00
2023-01-10T03:02:41.460Z,0.00
2023-01-10T03:07:54.775Z,0.00
2023-01-10T03:13:17.141Z,0.50
2023-01-10T03:18:42.763Z,0.00
2023-01-10T03:23:50.485Z,0.00
2023-01-10T03:28:59.913Z,0.50
2023-01-10T03:34:04.020Z,0.50
2023-01-10T03:39:17.169Z,0.00
2023-01-10T03:44:43.099Z,1.00
2023-01-10T03:49:49.953Z,0.00
2023-01-10T03:54:54.714Z,0.00
2023-01-10T04:00:00.021Z,1.00
2023-01-10T04:05:02.922Z,1.00
2023-01-10T04:10:08.188Z,0.00
2023-01-10T04:15:11.621Z,0.00
2023-01-10T04:20:14.529Z,0.00
2023-01-10T04:25:18.922Z,0.75
2023-01-10T04:30:21.768Z,0.00
2023-01-10T04:35:24.559Z,0.75
2023-01-10T04:40:28.748Z,0.25
2023-01-10T04:45:31.698Z,0.00
2023-01-10T04:50:34.511Z,0.00
2023-01-10T04:55:38.595Z,1.00
2023-01-10T05:00:41.785Z,0.00
2023-01-10T05:05:44.717Z,0.00
2023-01-10T05:10:48.866Z,2.00
2023-01-10T05:15:54.395Z,0.00
2023-01-10T05:21:01.321Z,0.50
2023-01-10T05:26:08.969Z,0.00
2023-01-10T05:31:14.460Z,0.00
2023-01-10T05:36:20.959Z,0.00
2023-01-10T05:41:25.254Z,0.75
2023-01-10T05:46:28.031Z,1.75
2023-01-10T05:51:31.151Z,0.75
2023-01-10T05:56:35.241Z,0.25
2023-01-10T06:01:38.038Z,0.00
2023-01-10T06:06:40.939Z,0.00
2023-01-10T06:11:45.298Z,0.75
2023-01-10T06:16:48.154Z,0.75
2023-01-10T06:21:50.955Z,0.00
2023-01-10T06:26:55.092Z,1.00
2023-01-10T06:31:57.873Z,1.00
2023-01-10T06:37:00.739Z,0.00
2023-01-10T06:42:04.940Z,1.00
2023-01-10T06:47:07.692Z,1.00
2023-01-10T06:52:10.547Z,1.25
2023-01-10T06:57:14.659Z,1.50
2023-01-10T07:02:17.543Z,0.00
2023-01-10T07:07:20.713Z,0.00
2023-01-10T07:12:24.924Z,1.50
2023-01-10T07:17:27.703Z,0.00
2023-01-10T07:22:30.496Z,0.75
2023-01-10T07:27:34.995Z,0.50
2023-01-10T07:32:37.792Z,0.00
2023-01-10T07:37:40.600Z,0.00
2023-01-10T07:42:44.881Z,1.00
2023-01-10T07:47:47.662Z,3.50
2023-01-10T07:52:50.600Z,0.00
2023-01-10T07:57:55.385Z,0.00
2023-01-10T08:02:58.253Z,0.00
2023-01-10T08:08:05.831Z,0.00
2023-01-10T08:13:18.490Z,4.00
2023-01-10T08:18:23.012Z,5.00
2023-01-10T08:23:25.782Z,4.50
2023-01-10T08:28:30.397Z,5.50
2023-01-10T08:33:33.404Z,3.25
2023-01-10T08:38:36.175Z,4.00
2023-01-10T08:43:40.528Z,4.00
2023-01-10T08:48:43.404Z,3.75
2023-01-10T08:53:46.141Z,4.00
2023-01-10T08:58:50.208Z,3.00
2023-01-10T09:03:53.027Z,2.00
2023-01-10T09:08:55.871Z,1.50
2023-01-10T09:14:00.031Z,1.00
2023-01-10T09:19:04.378Z,1.75
2023-01-10T09:24:08.313Z,3.00
2023-01-10T09:29:12.428Z,1.25
2023-01-10T09:34:15.415Z,2.00
2023-01-10T09:39:18.351Z,2.25
2023-01-10T09:44:38.608Z,3.00
2023-01-10T09:49:53.070Z,2.00
2023-01-10T09:54:59.724Z,3.75
2023-01-10T10:00:04.948Z,2.00
2023-01-10T10:05:16.423Z,2.75
2023-01-10T10:10:24.643Z,1.00
2023-01-10T10:15:39.773Z,1.50
2023-01-10T10:20:55.496Z,1.75
2023-01-10T10:26:05.377Z,3.50
2023-01-10T10:31:19.376Z,1.25
2023-01-10T10:36:27.820Z,3.00
2023-01-10T10:41:36.598Z,1.00
2023-01-10T10:46:40.999Z,2.50
2023-01-10T10:51:51.507Z,0.75
2023-01-10T10:56:58.324Z,3.25
2023-01-10T11:02:02.604Z,2.00
2023-01-10T11:07:05.472Z,3.50
2023-01-10T11:12:15.100Z,2.75
2023-01-10T11:17:25.584Z,2.00
2023-01-10T11:22:40.693Z,2.00
2023-01-10T11:27:50.607Z,2.00
2023-01-10T11:32:57.569Z,2.00
2023-01-10T11:38:01.775Z,3.50
2023-01-10T11:43:27.771Z,2.50
2023-01-10T11:49:04.409Z,2.00
2023-01-10T11:54:13.053Z,2.00
2023-01-10T11:59:18.595Z,2.25
2023-01-10T12:04:24.959Z,1.00
2023-01-10T12:09:40.597Z,1.75
2023-01-10T12:14:43.385Z,1.25
2023-01-10T12:19:47.789Z,3.00
2023-01-10T12:24:52.632Z,1.00
2023-01-10T12:30:03.429Z,2.50
2023-01-10T12:35:15.102Z,2.00
2023-01-10T12:40:26.426Z,2.00
2023-01-10T12:45:34.596Z,2.75
2023-01-10T12:50:43.382Z,9.50
2023-01-10T12:55:46.974Z,17.25
2023-01-10T13:00:54.642Z,28.25
2023-01-10T13:05:59.734Z,29.25
2023-01-10T13:11:04.426Z,32.00
2023-01-10T13:16:28.986Z,20.75
2023-01-10T13:21:35.239Z,20.25
2023-01-10T13:26:52.465Z,15.00
2023-01-10T13:32:02.078Z,11.00
2023-01-10T13:37:14.227Z,10.75
2023-01-10T13:42:49.093Z,11.00
2023-01-10T13:48:24.083Z,8.75
2023-01-10T13:54:01.818Z,6.00
2023-01-10T13:59:24.261Z,8.25
2023-01-10T14:04:30.530Z,7.50
2023-01-10T14:09:44.546Z,6.00
2023-01-10T14:14:55.179Z,8.25
2023-01-10T14:20:19.278Z,6.00
2023-01-10T14:25:24.184Z,6.00
2023-01-10T14:30:32.028Z,6.00
2023-01-10T14:35:39.906Z,8.00
2023-01-10T14:40:46.380Z,6.00
2023-01-10T14:45:53.677Z,5.25
2023-01-10T14:51:18.536Z,6.50
2023-01-10T14:56:26.719Z,4.75
2023-01-10T15:01:31.256Z,3.25
2023-01-10T15:06:52.283Z,3.75
2023-01-10T15:12:01.301Z,6.75
2023-01-10T15:17:06.536Z,3.25
2023-01-10T15:22:25.503Z,3.50
2023-01-10T15:27:31.502Z,3.00
2023-01-10T15:32:38.313Z,3.00
2023-01-10T15:37:45.180Z,3.25
2023-01-10T15:42:49.430Z,4.00
2023-01-10T15:47:55.154Z,3.25
2023-01-10T15:53:00.788Z,2.50
2023-01-10T15:58:06.240Z,5.00
2023-01-10T16:03:21.899Z,2.00
2023-01-10T16:08:26.808Z,3.00
2023-01-10T16:13:33.996Z,2.50
2023-01-10T16:18:36.795Z,2.25
2023-01-10T16:23:46.052Z,3.25
2023-01-10T16:28:50.201Z,2.25
2023-01-10T16:33:52.986Z,4.00
2023-01-10T16:38:56.031Z,1.75
2023-01-10T16:44:00.578Z,1.25
2023-01-10T16:49:06.487Z,2.00
2023-01-10T16:54:15.840Z,3.75
2023-01-10T16:59:20.670Z,2.75
2023-01-10T17:04:27.354Z,2.00
2023-01-10T17:09:31.854Z,2.25
2023-01-10T17:14:38.098Z,2.00
2023-01-10T17:19:42.673Z,2.75
2023-01-10T17:24:45.484Z,3.25
2023-01-10T17:29:49.729Z,3.75
2023-01-10T17:34:52.568Z,2.00
2023-01-10T17:39:55.551Z,2.25
2023-01-10T17:44:59.773Z,1.00
2023-01-10T17:50:02.669Z,2.50
2023-01-10T17:55:07.469Z,2.25
2023-01-10T18:00:13.133Z,2.00
2023-01-10T18:05:16.166Z,2.00
2023-01-10T18:10:19.037Z,2.00
2023-01-10T18:15:23.386Z,1.75
2023-01-10T18:20:27.663Z,2.00
2023-01-10T18:25:30.430Z,1.75
2023-01-10T18:30:34.599Z,3.00
2023-01-10T18:35:38.952Z,4.00
2023-01-10T18:40:42.406Z,2.00
2023-01-10T18:45:48.458Z,2.75
2023-01-10T18:50:54.080Z,2.00
2023-01-10T18:55:58.296Z,3.00
2023-01-10T19:01:07.766Z,1.25
2023-01-10T19:06:12.343Z,2.25
2023-01-10T19:11:17.116Z,1.75
2023-01-10T19:16:23.440Z,1.00
2023-01-10T19:21:27.621Z,2.00
2023-01-10T19:26:30.752Z,1.00
2023-01-10T19:31:34.947Z,2.25
2023-01-10T19:36:39.440Z,1.50
2023-01-10T19:41:43.289Z,1.00
2023-01-10T19:46:49.101Z,1.50
2023-01-10T19:51:53.660Z,1.25
2023-01-10T19:56:56.694Z,3.00
2023-01-10T20:02:01.907Z,1.75
2023-01-10T20:07:04.853Z,2.25
2023-01-10T20:12:07.743Z,2.25
2023-01-10T20:17:11.894Z,2.25
2023-01-10T20:22:14.716Z,2.00
2023-01-10T20:27:17.702Z,1.75
2023-01-10T20:32:22.950Z,0.50
2023-01-10T20:37:25.936Z,2.25
2023-01-10T20:42:28.909Z,1.00
2023-01-10T20:47:33.315Z,2.00
2023-01-10T20:52:36.375Z,2.00
2023-01-10T20:57:39.151Z,2.25
2023-01-10T21:02:43.240Z,1.00
2023-01-10T21:07:46.040Z,2.00
2023-01-10T21:12:48.855Z,2.00
2023-01-10T21:17:53.166Z,3.00
2023-01-10T21:22:57.889Z,2.00
2023-01-10T21:28:02.839Z,2.25
2023-01-10T21:33:07.721Z,2.00
2023-01-10T21:38:10.539Z,0.75
2023-01-10T21:43:13.347Z,1.00
2023-01-10T21:48:17.503Z,2.00
2023-01-10T21:53:20.485Z,1.50
2023-01-10T21:58:23.291Z,2.75
2023-01-10T22:03:27.566Z,2.00
2023-01-10T22:08:30.375Z,1.00
2023-01-10T22:13:33.411Z,2.25
2023-01-10T22:18:37.705Z,2.75
2023-01-10T22:23:42.965Z,3.00
2023-01-10T22:28:45.745Z,2.00
2023-01-10T22:33:50.030Z,1.50
2023-01-10T22:38:52.779Z,1.00
2023-01-10T22:43:56.719Z,2.25
2023-01-10T22:49:01.277Z,1.75
2023-01-10T22:54:04.657Z,1.00
2023-01-10T22:59:07.517Z,1.00
2023-01-10T23:04:11.679Z,2.00
2023-01-10T23:09:14.927Z,4.25
2023-01-10T23:14:17.874Z,1.75
2023-01-10T23:19:22.007Z,1.50
2023-01-10T23:24:24.725Z,2.50
2023-01-10T23:29:27.578Z,2.25
2023-01-10T23:34:31.606Z,0.50
2023-01-10T23:39:34.414Z,1.00
2023-01-10T23:44:37.144Z,2.00
2023-01-10T23:49:41.234Z,0.00
2023-01-10T23:54:44.055Z,2.00
2023-01-10T23:59:46.871Z,2.25
